sensor_id;sensor_type;location;lat;lon;timestamp;pressure;altitude;pressure_sealevel;temperature;humidity
50011;BME280;35899;50.352;19.390;2023-02-16T00:01:53;98650.73;;;-1.72;90.76
50011;BME280;35899;50.352;19.390;2023-02-16T00:04:29;98650.80;;;-1.82;90.36
50011;BME280;35899;50.352;19.390;2023-02-16T00:06:57;98649.85;;;-1.88;90.52
50011;BME280;35899;50.352;19.390;2023-02-16T00:09:25;98649.75;;;-1.96;90.25
50011;BME280;35899;50.352;19.390;2023-02-16T00:11:53;98650.62;;;-2.00;90.62
50011;BME280;35899;50.352;19.390;2023-02-16T00:14:22;98647.76;;;-2.02;90.82
50011;BME280;35899;50.352;19.390;2023-02-16T00:16:52;98642.70;;;-2.05;90.84
50011;BME280;35899;50.352;19.390;2023-02-16T00:19:25;98638.13;;;-2.07;90.94
50011;BME280;35899;50.352;19.390;2023-02-16T00:21:56;98636.45;;;-2.09;90.87
50011;BME280;35899;50.352;19.390;2023-02-16T00:24:25;98637.14;;;-2.09;91.36
50011;BME280;35899;50.352;19.390;2023-02-16T00:26:54;98635.09;;;-2.08;91.47
50011;BME280;35899;50.352;19.390;2023-02-16T00:29:28;98636.08;;;-2.05;91.88
50011;BME280;35899;50.352;19.390;2023-02-16T00:31:58;98631.83;;;-2.03;91.98
50011;BME280;35899;50.352;19.390;2023-02-16T00:36:56;98624.85;;;-2.01;92.23
50011;BME280;35899;50.352;19.390;2023-02-16T00:39:25;98621.10;;;-1.99;92.41
50011;BME280;35899;50.352;19.390;2023-02-16T00:41:56;98619.54;;;-1.95;92.75
50011;BME280;35899;50.352;19.390;2023-02-16T00:44:36;98616.11;;;-1.92;92.92
50011;BME280;35899;50.352;19.390;2023-02-16T00:49:44;98611.88;;;-1.91;92.77
50011;BME280;35899;50.352;19.390;2023-02-16T00:52:32;98612.89;;;-1.92;92.65
50011;BME280;35899;50.352;19.390;2023-02-16T00:55:03;98606.97;;;-1.93;92.80
50011;BME280;35899;50.352;19.390;2023-02-16T00:57:39;98603.57;;;-1.92;93.20
50011;BME280;35899;50.352;19.390;2023-02-16T01:02:47;98597.63;;;-1.90;93.13
50011;BME280;35899;50.352;19.390;2023-02-16T01:05:16;98595.75;;;-1.89;93.31
50011;BME280;35899;50.352;19.390;2023-02-16T01:07:44;98597.75;;;-1.87;93.54
50011;BME280;35899;50.352;19.390;2023-02-16T01:10:12;98596.05;;;-1.87;93.46
50011;BME280;35899;50.352;19.390;2023-02-16T01:12:40;98597.42;;;-1.88;93.22
50011;BME280;35899;50.352;19.390;2023-02-16T01:15:12;98596.91;;;-1.88;93.17
50011;BME280;35899;50.352;19.390;2023-02-16T01:17:41;98594.55;;;-1.88;93.28
50011;BME280;35899;50.352;19.390;2023-02-16T01:20:17;98591.17;;;-1.91;93.24
50011;BME280;35899;50.352;19.390;2023-02-16T01:22:46;98587.83;;;-1.95;92.73
50011;BME280;35899;50.352;19.390;2023-02-16T01:25:14;98588.05;;;-2.01;92.75
50011;BME280;35899;50.352;19.390;2023-02-16T01:27:43;98589.42;;;-2.02;92.94
50011;BME280;35899;50.352;19.390;2023-02-16T01:30:17;98588.94;;;-2.06;92.56
50011;BME280;35899;50.352;19.390;2023-02-16T01:32:46;98586.43;;;-2.10;92.37
50011;BME280;35899;50.352;19.390;2023-02-16T01:35:14;98582.42;;;-2.17;92.05
50011;BME280;35899;50.352;19.390;2023-02-16T01:37:42;98578.70;;;-2.19;92.41
50011;BME280;35899;50.352;19.390;2023-02-16T01:40:29;98572.80;;;-2.22;92.33
50011;BME280;35899;50.352;19.390;2023-02-16T01:43:21;98564.67;;;-2.23;92.84
50011;BME280;35899;50.352;19.390;2023-02-16T01:46:04;98564.14;;;-2.22;93.05
50011;BME280;35899;50.352;19.390;2023-02-16T01:48:34;98561.60;;;-2.21;93.03
50011;BME280;35899;50.352;19.390;2023-02-16T01:53:44;98559.54;;;-2.19;93.33
50011;BME280;35899;50.352;19.390;2023-02-16T01:56:18;98555.84;;;-2.21;93.17
50011;BME280;35899;50.352;19.390;2023-02-16T01:58:52;98553.48;;;-2.22;93.00
50011;BME280;35899;50.352;19.390;2023-02-16T02:01:35;98552.81;;;-2.25;92.89
50011;BME280;35899;50.352;19.390;2023-02-16T02:04:15;98556.73;;;-2.25;93.15
50011;BME280;35899;50.352;19.390;2023-02-16T02:06:46;98555.35;;;-2.24;93.41
50011;BME280;35899;50.352;19.390;2023-02-16T02:09:45;98555.02;;;-2.26;93.24
50011;BME280;35899;50.352;19.390;2023-02-16T02:12:52;98556.75;;;-2.27;93.15
50011;BME280;35899;50.352;19.390;2023-02-16T02:15:26;98553.36;;;-2.29;93.13
50011;BME280;35899;50.352;19.390;2023-02-16T02:17:56;98558.80;;;-2.30;93.19
50011;BME280;35899;50.352;19.390;2023-02-16T02:32:38;98555.39;;;-2.29;93.76
50011;BME280;35899;50.352;19.390;2023-02-16T02:38:25;98559.30;;;-2.28;94.13
50011;BME280;35899;50.352;19.390;2023-02-16T02:41:17;98555.05;;;-2.28;94.23
50011;BME280;35899;50.352;19.390;2023-02-16T02:44:00;98557.42;;;-2.29;93.96
50011;BME280;35899;50.352;19.390;2023-02-16T02:46:33;98555.40;;;-2.30;94.07
50011;BME280;35899;50.352;19.390;2023-02-16T02:49:02;98557.09;;;-2.31;94.15
50011;BME280;35899;50.352;19.390;2023-02-16T02:51:30;98558.80;;;-2.31;94.13
50011;BME280;35899;50.352;19.390;2023-02-16T02:54:13;98554.91;;;-2.32;94.31
50011;BME280;35899;50.352;19.390;2023-02-16T02:56:52;98549.50;;;-2.33;94.27
50011;BME280;35899;50.352;19.390;2023-02-16T02:59:23;98550.85;;;-2.33;94.50
50011;BME280;35899;50.352;19.390;2023-02-16T03:01:57;98554.23;;;-2.33;94.46
50011;BME280;35899;50.352;19.390;2023-02-16T03:04:28;98557.27;;;-2.31;94.74
50011;BME280;35899;50.352;19.390;2023-02-16T03:06:59;98550.81;;;-2.30;94.84
50011;BME280;35899;50.352;19.390;2023-02-16T03:09:29;98547.93;;;-2.29;95.07
50011;BME280;35899;50.352;19.390;2023-02-16T03:11:57;98545.23;;;-2.29;94.80
50011;BME280;35899;50.352;19.390;2023-02-16T03:14:35;98540.00;;;-2.32;94.32
50011;BME280;35899;50.352;19.390;2023-02-16T03:17:11;98543.58;;;-2.36;93.98
50011;BME280;35899;50.352;19.390;2023-02-16T03:19:41;98543.81;;;-2.42;93.72
50011;BME280;35899;50.352;19.390;2023-02-16T03:22:10;98546.75;;;-2.48;93.56
50011;BME280;35899;50.352;19.390;2023-02-16T03:24:38;98546.09;;;-2.52;93.73
50011;BME280;35899;50.352;19.390;2023-02-16T03:27:07;98545.60;;;-2.56;93.82
50011;BME280;35899;50.352;19.390;2023-02-16T03:29:36;98543.08;;;-2.58;93.88
50011;BME280;35899;50.352;19.390;2023-02-16T03:32:05;98540.05;;;-2.59;93.94
50011;BME280;35899;50.352;19.390;2023-02-16T03:34:34;98542.92;;;-2.61;94.01
50011;BME280;35899;50.352;19.390;2023-02-16T03:37:03;98541.60;;;-2.63;93.83
50011;BME280;35899;50.352;19.390;2023-02-16T03:39:32;98541.11;;;-2.66;93.80
50011;BME280;35899;50.352;19.390;2023-02-16T03:42:00;98538.77;;;-2.71;93.59
50011;BME280;35899;50.352;19.390;2023-02-16T03:44:28;98537.60;;;-2.74;93.67
50011;BME280;35899;50.352;19.390;2023-02-16T03:46:56;98537.96;;;-2.78;93.71
50011;BME280;35899;50.352;19.390;2023-02-16T03:49:24;98544.57;;;-2.77;94.01
50011;BME280;35899;50.352;19.390;2023-02-16T03:51:52;98543.04;;;-2.77;94.15
50011;BME280;35899;50.352;19.390;2023-02-16T03:54:20;98540.34;;;-2.78;94.17
50011;BME280;35899;50.352;19.390;2023-02-16T03:56:48;98540.19;;;-2.79;94.19
50011;BME280;35899;50.352;19.390;2023-02-16T03:59:16;98538.99;;;-2.79;94.36
50011;BME280;35899;50.352;19.390;2023-02-16T04:01:44;98532.38;;;-2.79;94.55
50011;BME280;35899;50.352;19.390;2023-02-16T04:04:12;98534.59;;;-2.78;94.63
50011;BME280;35899;50.352;19.390;2023-02-16T04:06:40;98532.20;;;-2.76;94.80
50011;BME280;35899;50.352;19.390;2023-02-16T04:09:08;98530.66;;;-2.74;95.08
50011;BME280;35899;50.352;19.390;2023-02-16T04:11:36;98526.25;;;-2.74;95.15
50011;BME280;35899;50.352;19.390;2023-02-16T04:14:03;98529.30;;;-2.72;95.10
50011;BME280;35899;50.352;19.390;2023-02-16T04:16:31;98530.82;;;-2.72;95.28
50011;BME280;35899;50.352;19.390;2023-02-16T04:18:59;98531.34;;;-2.73;95.12
50011;BME280;35899;50.352;19.390;2023-02-16T04:21:27;98528.44;;;-2.72;95.35
50011;BME280;35899;50.352;19.390;2023-02-16T04:23:55;98522.67;;;-2.71;95.19
50011;BME280;35899;50.352;19.390;2023-02-16T04:26:23;98520.52;;;-2.79;94.20
50011;BME280;35899;50.352;19.390;2023-02-16T04:28:51;98520.77;;;-2.89;93.61
50011;BME280;35899;50.352;19.390;2023-02-16T04:31:19;98520.15;;;-2.99;93.25
50011;BME280;35899;50.352;19.390;2023-02-16T04:33:47;98519.36;;;-3.07;93.18
50011;BME280;35899;50.352;19.390;2023-02-16T04:36:15;98517.36;;;-3.13;93.39
50011;BME280;35899;50.352;19.390;2023-02-16T04:38:43;98513.83;;;-3.16;93.56
50011;BME280;35899;50.352;19.390;2023-02-16T04:41:11;98509.45;;;-3.19;93.64
50011;BME280;35899;50.352;19.390;2023-02-16T04:43:39;98504.55;;;-3.21;93.72
50011;BME280;35899;50.352;19.390;2023-02-16T04:46:07;98507.27;;;-3.22;93.98
50011;BME280;35899;50.352;19.390;2023-02-16T04:48:35;98502.67;;;-3.22;94.10
50011;BME280;35899;50.352;19.390;2023-02-16T04:51:03;98504.55;;;-3.21;94.44
50011;BME280;35899;50.352;19.390;2023-02-16T04:53:32;98503.86;;;-3.19;94.83
50011;BME280;35899;50.352;19.390;2023-02-16T04:56:00;98506.38;;;-3.16;94.90
50011;BME280;35899;50.352;19.390;2023-02-16T04:58:28;98509.23;;;-3.13;94.96
50011;BME280;35899;50.352;19.390;2023-02-16T05:00:56;98514.15;;;-3.12;94.97
50011;BME280;35899;50.352;19.390;2023-02-16T05:03:24;98510.41;;;-3.11;95.15
50011;BME280;35899;50.352;19.390;2023-02-16T05:05:52;98505.49;;;-3.09;95.23
50011;BME280;35899;50.352;19.390;2023-02-16T05:08:19;98509.04;;;-3.08;95.31
50011;BME280;35899;50.352;19.390;2023-02-16T05:10:47;98508.52;;;-3.06;95.39
50011;BME280;35899;50.352;19.390;2023-02-16T05:13:15;98516.29;;;-3.03;95.61
50011;BME280;35899;50.352;19.390;2023-02-16T05:15:43;98517.13;;;-3.01;95.69
50011;BME280;35899;50.352;19.390;2023-02-16T05:18:11;98513.39;;;-3.01;95.54
50011;BME280;35899;50.352;19.390;2023-02-16T05:20:39;98512.03;;;-3.02;95.57
50011;BME280;35899;50.352;19.390;2023-02-16T05:23:08;98510.02;;;-3.02;95.38
50011;BME280;35899;50.352;19.390;2023-02-16T05:25:36;98507.82;;;-3.05;95.35
50011;BME280;35899;50.352;19.390;2023-02-16T05:28:04;98506.30;;;-3.04;95.40
50011;BME280;35899;50.352;19.390;2023-02-16T05:30:32;98507.66;;;-3.04;95.47
50011;BME280;35899;50.352;19.390;2023-02-16T05:33:00;98511.74;;;-3.06;95.41
50011;BME280;35899;50.352;19.390;2023-02-16T05:35:28;98512.42;;;-3.08;95.30
50011;BME280;35899;50.352;19.390;2023-02-16T05:37:56;98511.91;;;-3.08;95.56
50011;BME280;35899;50.352;19.390;2023-02-16T05:40:24;98514.11;;;-3.07;95.63
50011;BME280;35899;50.352;19.390;2023-02-16T05:42:53;98513.95;;;-3.07;95.63
50011;BME280;35899;50.352;19.390;2023-02-16T05:45:21;98512.93;;;-3.07;95.76
50011;BME280;35899;50.352;19.390;2023-02-16T05:47:49;98511.89;;;-3.05;95.93
50011;BME280;35899;50.352;19.390;2023-02-16T05:50:17;98510.70;;;-3.02;96.22
50011;BME280;35899;50.352;19.390;2023-02-16T05:52:45;98511.86;;;-3.00;96.48
50011;BME280;35899;50.352;19.390;2023-02-16T05:55:13;98507.27;;;-2.96;96.77
50011;BME280;35899;50.352;19.390;2023-02-16T05:57:41;98505.89;;;-2.93;96.78
50011;BME280;35899;50.352;19.390;2023-02-16T06:00:09;98504.17;;;-2.90;96.88
50011;BME280;35899;50.352;19.390;2023-02-16T06:02:37;98498.91;;;-2.87;96.86
50011;BME280;35899;50.352;19.390;2023-02-16T06:05:05;98495.18;;;-2.87;96.30
50011;BME280;35899;50.352;19.390;2023-02-16T06:07:33;98500.46;;;-2.91;95.51
50011;BME280;35899;50.352;19.390;2023-02-16T06:10:02;98503.36;;;-2.94;95.14
50011;BME280;35899;50.352;19.390;2023-02-16T06:12:30;98510.16;;;-2.98;94.68
50011;BME280;35899;50.352;19.390;2023-02-16T06:14:59;98514.41;;;-3.00;94.65
50011;BME280;35899;50.352;19.390;2023-02-16T06:17:27;98518.31;;;-3.01;94.57
50011;BME280;35899;50.352;19.390;2023-02-16T06:19:55;98521.86;;;-3.00;94.64
50011;BME280;35899;50.352;19.390;2023-02-16T06:22:23;98526.08;;;-2.97;94.91
50011;BME280;35899;50.352;19.390;2023-02-16T06:24:51;98526.54;;;-2.91;95.32
50011;BME280;35899;50.352;19.390;2023-02-16T06:27:18;98532.41;;;-2.82;95.70
50011;BME280;35899;50.352;19.390;2023-02-16T06:29:46;98534.03;;;-2.73;96.05
50011;BME280;35899;50.352;19.390;2023-02-16T06:32:14;98532.60;;;-2.62;96.25
50011;BME280;35899;50.352;19.390;2023-02-16T06:34:42;98530.83;;;-2.51;96.73
50011;BME280;35899;50.352;19.390;2023-02-16T06:37:10;98531.09;;;-2.41;97.17
50011;BME280;35899;50.352;19.390;2023-02-16T06:39:38;98535.39;;;-2.29;97.63
50011;BME280;35899;50.352;19.390;2023-02-16T06:42:06;98532.21;;;-2.15;98.11
50011;BME280;35899;50.352;19.390;2023-02-16T06:44:34;98530.04;;;-2.01;98.69
50011;BME280;35899;50.352;19.390;2023-02-16T06:47:01;98531.29;;;-1.90;98.68
50011;BME280;35899;50.352;19.390;2023-02-16T06:49:29;98528.30;;;-1.80;98.72
50011;BME280;35899;50.352;19.390;2023-02-16T06:51:57;98531.06;;;-1.69;98.75
50011;BME280;35899;50.352;19.390;2023-02-16T06:54:25;98526.71;;;-1.60;98.82
50011;BME280;35899;50.352;19.390;2023-02-16T06:56:54;98522.52;;;-1.50;98.79
50011;BME280;35899;50.352;19.390;2023-02-16T06:59:21;98521.02;;;-1.39;98.82
50011;BME280;35899;50.352;19.390;2023-02-16T07:01:49;98520.73;;;-1.27;98.85
50011;BME280;35899;50.352;19.390;2023-02-16T07:04:17;98520.19;;;-1.14;99.04
50011;BME280;35899;50.352;19.390;2023-02-16T07:06:45;98525.10;;;-1.01;98.97
50011;BME280;35899;50.352;19.390;2023-02-16T07:09:13;98529.70;;;-0.89;98.97
50011;BME280;35899;50.352;19.390;2023-02-16T07:11:41;98536.50;;;-0.78;98.95
50011;BME280;35899;50.352;19.390;2023-02-16T07:14:09;98534.29;;;-0.66;99.08
50011;BME280;35899;50.352;19.390;2023-02-16T07:16:37;98533.45;;;-0.55;99.16
50011;BME280;35899;50.352;19.390;2023-02-16T07:19:05;98533.15;;;-0.47;99.13
50011;BME280;35899;50.352;19.390;2023-02-16T07:21:33;98531.45;;;-0.36;99.20
50011;BME280;35899;50.352;19.390;2023-02-16T07:24:01;98529.89;;;-0.25;99.27
50011;BME280;35899;50.352;19.390;2023-02-16T07:26:29;98530.20;;;-0.13;99.68
50011;BME280;35899;50.352;19.390;2023-02-16T07:28:57;98531.73;;;-0.03;99.50
50011;BME280;35899;50.352;19.390;2023-02-16T07:31:25;98532.70;;;0.09;99.57
50011;BME280;35899;50.352;19.390;2023-02-16T07:33:53;98535.70;;;0.21;99.48
50011;BME280;35899;50.352;19.390;2023-02-16T07:36:21;98537.71;;;0.33;99.61
50011;BME280;35899;50.352;19.390;2023-02-16T07:38:49;98532.52;;;0.46;99.48
50011;BME280;35899;50.352;19.390;2023-02-16T07:41:18;98530.92;;;0.57;99.36
50011;BME280;35899;50.352;19.390;2023-02-16T07:43:46;98531.89;;;0.69;99.29
50011;BME280;35899;50.352;19.390;2023-02-16T07:46:14;98532.98;;;0.81;99.34
50011;BME280;35899;50.352;19.390;2023-02-16T07:48:46;98530.02;;;0.93;99.17
50011;BME280;35899;50.352;19.390;2023-02-16T07:51:21;98525.53;;;1.04;99.18
50011;BME280;35899;50.352;19.390;2023-02-16T07:53:50;98526.46;;;1.15;98.96
50011;BME280;35899;50.352;19.390;2023-02-16T07:56:24;98526.49;;;1.22;98.71
50011;BME280;35899;50.352;19.390;2023-02-16T07:58:54;98528.20;;;1.29;98.43
50011;BME280;35899;50.352;19.390;2023-02-16T08:01:23;98524.29;;;1.36;98.33
50011;BME280;35899;50.352;19.390;2023-02-16T08:03:52;98526.74;;;1.47;98.39
50011;BME280;35899;50.352;19.390;2023-02-16T08:06:20;98524.95;;;1.58;98.15
50011;BME280;35899;50.352;19.390;2023-02-16T08:08:48;98518.64;;;1.65;97.87
50011;BME280;35899;50.352;19.390;2023-02-16T08:11:19;98520.63;;;1.74;97.97
50011;BME280;35899;50.352;19.390;2023-02-16T08:13:47;98514.80;;;1.83;97.60
50011;BME280;35899;50.352;19.390;2023-02-16T08:16:17;98515.30;;;1.90;97.54
50011;BME280;35899;50.352;19.390;2023-02-16T08:18:46;98508.95;;;1.98;97.35
50011;BME280;35899;50.352;19.390;2023-02-16T08:21:16;98512.02;;;2.04;97.21
50011;BME280;35899;50.352;19.390;2023-02-16T08:23:48;98510.05;;;2.13;97.19
50011;BME280;35899;50.352;19.390;2023-02-16T08:26:20;98503.65;;;2.23;97.05
50011;BME280;35899;50.352;19.390;2023-02-16T08:28:48;98502.50;;;2.34;97.06
50011;BME280;35899;50.352;19.390;2023-02-16T08:31:19;98505.59;;;2.45;96.94
50011;BME280;35899;50.352;19.390;2023-02-16T08:33:48;98510.02;;;2.52;96.47
50011;BME280;35899;50.352;19.390;2023-02-16T08:38:44;98510.36;;;2.70;96.38
50011;BME280;35899;50.352;19.390;2023-02-16T08:41:12;98510.16;;;2.83;96.55
50011;BME280;35899;50.352;19.390;2023-02-16T08:43:40;98511.77;;;2.92;96.35
50011;BME280;35899;50.352;19.390;2023-02-16T08:46:08;98510.45;;;2.96;95.80
50011;BME280;35899;50.352;19.390;2023-02-16T08:48:36;98514.23;;;3.01;95.83
50011;BME280;35899;50.352;19.390;2023-02-16T08:51:05;98511.31;;;3.07;95.78
50011;BME280;35899;50.352;19.390;2023-02-16T08:53:33;98510.09;;;3.14;95.53
50011;BME280;35899;50.352;19.390;2023-02-16T08:56:02;98510.40;;;3.20;95.08
50011;BME280;35899;50.352;19.390;2023-02-16T08:58:31;98509.88;;;3.26;94.77
50011;BME280;35899;50.352;19.390;2023-02-16T09:01:03;98508.04;;;3.36;95.25
50011;BME280;35899;50.352;19.390;2023-02-16T09:03:32;98509.10;;;3.51;95.17
50011;BME280;35899;50.352;19.390;2023-02-16T09:06:02;98510.23;;;3.64;94.86
50011;BME280;35899;50.352;19.390;2023-02-16T09:08:31;98508.52;;;3.74;94.73
50011;BME280;35899;50.352;19.390;2023-02-16T09:11:06;98507.09;;;3.81;94.17
50011;BME280;35899;50.352;19.390;2023-02-16T09:13:35;98508.45;;;3.92;94.14
50011;BME280;35899;50.352;19.390;2023-02-16T09:16:09;98507.61;;;4.06;94.40
50011;BME280;35899;50.352;19.390;2023-02-16T09:18:38;98508.38;;;4.19;94.17
50011;BME280;35899;50.352;19.390;2023-02-16T09:21:09;98512.11;;;4.29;93.55
50011;BME280;35899;50.352;19.390;2023-02-16T09:23:38;98511.86;;;4.41;93.08
50011;BME280;35899;50.352;19.390;2023-02-16T09:26:09;98513.84;;;4.53;92.89
50011;BME280;35899;50.352;19.390;2023-02-16T09:28:38;98518.15;;;4.67;92.68
50011;BME280;35899;50.352;19.390;2023-02-16T09:31:14;98516.09;;;4.81;92.52
50011;BME280;35899;50.352;19.390;2023-02-16T09:33:43;98516.17;;;4.97;92.17
50011;BME280;35899;50.352;19.390;2023-02-16T09:36:12;98517.23;;;5.14;91.97
50011;BME280;35899;50.352;19.390;2023-02-16T09:38:40;98514.58;;;5.29;90.42
50011;BME280;35899;50.352;19.390;2023-02-16T09:41:22;98515.15;;;5.50;90.16
50011;BME280;35899;50.352;19.390;2023-02-16T09:47:30;98514.63;;;6.21;89.03
50011;BME280;35899;50.352;19.390;2023-02-16T09:49:59;98516.66;;;6.61;88.03
50011;BME280;35899;50.352;19.390;2023-02-16T09:52:35;98518.19;;;6.88;86.95
50011;BME280;35899;50.352;19.390;2023-02-16T09:55:10;98522.89;;;7.13;85.34
50011;BME280;35899;50.352;19.390;2023-02-16T10:00:14;98511.25;;;7.63;84.41
50011;BME280;35899;50.352;19.390;2023-02-16T10:03:27;98507.09;;;7.95;83.31
50011;BME280;35899;50.352;19.390;2023-02-16T10:08:13;98505.86;;;8.43;81.68
50011;BME280;35899;50.352;19.390;2023-02-16T10:10:55;98506.69;;;8.60;80.27
50011;BME280;35899;50.352;19.390;2023-02-16T10:15:56;98501.36;;;9.05;78.91
50011;BME280;35899;50.352;19.390;2023-02-16T10:18:34;98499.64;;;9.20;78.20
50011;BME280;35899;50.352;19.390;2023-02-16T10:21:08;98498.35;;;9.34;77.10
50011;BME280;35899;50.352;19.390;2023-02-16T10:24:00;98493.64;;;9.48;76.57
50011;BME280;35899;50.352;19.390;2023-02-16T10:26:33;98486.53;;;9.75;76.18
50011;BME280;35899;50.352;19.390;2023-02-16T10:29:13;98482.91;;;9.96;75.45
50011;BME280;35899;50.352;19.390;2023-02-16T10:45:36;98461.80;;;11.24;68.34
50011;BME280;35899;50.352;19.390;2023-02-16T10:48:08;98462.23;;;11.49;68.74
50011;BME280;35899;50.352;19.390;2023-02-16T10:50:40;98450.44;;;11.78;67.46
50011;BME280;35899;50.352;19.390;2023-02-16T10:53:14;98451.20;;;11.96;66.53
50011;BME280;35899;50.352;19.390;2023-02-16T10:55:43;98446.04;;;12.03;63.22
50011;BME280;35899;50.352;19.390;2023-02-16T10:58:37;98439.19;;;11.93;62.10
50011;BME280;35899;50.352;19.390;2023-02-16T11:01:13;98434.64;;;12.07;64.11
50011;BME280;35899;50.352;19.390;2023-02-16T11:03:45;98428.48;;;12.51;65.02
50011;BME280;35899;50.352;19.390;2023-02-16T11:06:20;98421.58;;;12.93;63.88
50011;BME280;35899;50.352;19.390;2023-02-16T11:08:50;98415.90;;;13.35;63.60
50011;BME280;35899;50.352;19.390;2023-02-16T11:11:19;98415.16;;;13.71;61.86
50011;BME280;35899;50.352;19.390;2023-02-16T11:13:48;98415.75;;;13.91;61.31
50011;BME280;35899;50.352;19.390;2023-02-16T11:16:21;98408.61;;;14.31;60.22
50011;BME280;35899;50.352;19.390;2023-02-16T11:19:46;98409.70;;;14.58;59.03
50011;BME280;35899;50.352;19.390;2023-02-16T11:22:05;98406.99;;;14.77;58.08
50011;BME280;35899;50.352;19.390;2023-02-16T11:24:36;98404.05;;;14.97;58.18
50011;BME280;35899;50.352;19.390;2023-02-16T11:29:40;98398.18;;;15.58;56.20
50011;BME280;35899;50.352;19.390;2023-02-16T11:32:10;98395.67;;;15.86;55.95
50011;BME280;35899;50.352;19.390;2023-02-16T11:34:42;98394.64;;;16.31;55.20
50011;BME280;35899;50.352;19.390;2023-02-16T11:42:48;98381.78;;;17.60;52.23
50011;BME280;35899;50.352;19.390;2023-02-16T11:47:53;98387.70;;;18.21;49.75
50011;BME280;35899;50.352;19.390;2023-02-16T11:50:31;98383.05;;;18.74;50.34
50011;BME280;35899;50.352;19.390;2023-02-16T11:55:41;98375.40;;;19.52;48.23
50011;BME280;35899;50.352;19.390;2023-02-16T11:58:21;98376.15;;;19.73;47.40
50011;BME280;35899;50.352;19.390;2023-02-16T12:00:58;98377.42;;;19.64;44.75
50011;BME280;35899;50.352;19.390;2023-02-16T12:06:39;98375.16;;;19.99;45.05
50011;BME280;35899;50.352;19.390;2023-02-16T12:17:41;98361.37;;;20.34;42.78
50011;BME280;35899;50.352;19.390;2023-02-16T12:20:19;98358.21;;;20.25;43.13
50011;BME280;35899;50.352;19.390;2023-02-16T12:22:58;98353.19;;;20.41;42.71
50011;BME280;35899;50.352;19.390;2023-02-16T12:25:36;98354.54;;;20.30;41.97
50011;BME280;35899;50.352;19.390;2023-02-16T12:31:11;98348.14;;;20.27;41.58
50011;BME280;35899;50.352;19.390;2023-02-16T12:33:56;98346.81;;;20.33;40.75
50011;BME280;35899;50.352;19.390;2023-02-16T12:36:45;98348.50;;;20.44;40.73
50011;BME280;35899;50.352;19.390;2023-02-16T12:42:30;98346.02;;;21.18;41.07
50011;BME280;35899;50.352;19.390;2023-02-16T12:45:07;98345.81;;;21.63;41.32
50011;BME280;35899;50.352;19.390;2023-02-16T12:47:46;98344.38;;;21.69;40.45
50011;BME280;35899;50.352;19.390;2023-02-16T12:50:23;98337.15;;;21.95;39.67
50011;BME280;35899;50.352;19.390;2023-02-16T12:53:02;98338.70;;;22.29;39.62
50011;BME280;35899;50.352;19.390;2023-02-16T12:55:37;98336.55;;;22.29;38.28
50011;BME280;35899;50.352;19.390;2023-02-16T12:58:17;98330.10;;;22.30;38.01
50011;BME280;35899;50.352;19.390;2023-02-16T13:01:04;98325.27;;;22.31;38.47
50011;BME280;35899;50.352;19.390;2023-02-16T13:11:55;98327.80;;;18.67;40.05
50011;BME280;35899;50.352;19.390;2023-02-16T13:14:31;98323.75;;;17.41;40.99
50011;BME280;35899;50.352;19.390;2023-02-16T13:17:03;98322.33;;;16.37;41.58
50011;BME280;35899;50.352;19.390;2023-02-16T13:19:36;98323.75;;;15.44;42.96
50011;BME280;35899;50.352;19.390;2023-02-16T13:22:27;98321.48;;;14.75;43.84
50011;BME280;35899;50.352;19.390;2023-02-16T13:27:52;98313.93;;;13.43;44.99
50011;BME280;35899;50.352;19.390;2023-02-16T13:30:41;98317.40;;;12.85;46.30
50011;BME280;35899;50.352;19.390;2023-02-16T13:36:14;98314.31;;;12.06;48.30
50011;BME280;35899;50.352;19.390;2023-02-16T13:39:17;98316.37;;;11.79;48.82
50011;BME280;35899;50.352;19.390;2023-02-16T13:44:37;98313.39;;;11.15;50.53
50011;BME280;35899;50.352;19.390;2023-02-16T13:47:25;98316.65;;;10.97;51.02
50011;BME280;35899;50.352;19.390;2023-02-16T13:49:59;98317.08;;;10.74;51.30
50011;BME280;35899;50.352;19.390;2023-02-16T13:52:36;98310.77;;;10.62;51.76
50011;BME280;35899;50.352;19.390;2023-02-16T13:58:06;98307.46;;;10.46;52.36
50011;BME280;35899;50.352;19.390;2023-02-16T14:03:09;98301.06;;;10.18;52.82
50011;BME280;35899;50.352;19.390;2023-02-16T14:05:44;98301.86;;;10.00;53.44
50011;BME280;35899;50.352;19.390;2023-02-16T14:08:28;98305.79;;;9.86;54.04
50011;BME280;35899;50.352;19.390;2023-02-16T14:11:04;98308.09;;;9.71;54.36
50011;BME280;35899;50.352;19.390;2023-02-16T14:18:53;98296.92;;;9.23;55.04
50011;BME280;35899;50.352;19.390;2023-02-16T14:21:44;98298.65;;;9.18;55.59
50011;BME280;35899;50.352;19.390;2023-02-16T14:24:33;98298.54;;;9.08;55.46
50011;BME280;35899;50.352;19.390;2023-02-16T14:27:05;98297.04;;;8.92;56.10
50011;BME280;35899;50.352;19.390;2023-02-16T14:29:41;98299.37;;;8.81;56.69
50011;BME280;35899;50.352;19.390;2023-02-16T14:32:32;98297.89;;;8.73;57.03
50011;BME280;35899;50.352;19.390;2023-02-16T14:35:06;98295.16;;;8.67;57.78
50011;BME280;35899;50.352;19.390;2023-02-16T14:40:15;98293.20;;;8.40;57.76
50011;BME280;35899;50.352;19.390;2023-02-16T14:42:50;98296.96;;;8.28;58.28
50011;BME280;35899;50.352;19.390;2023-02-16T14:57:03;98307.92;;;7.71;60.04
50011;BME280;35899;50.352;19.390;2023-02-16T14:59:39;98306.05;;;7.60;60.15
50011;BME280;35899;50.352;19.390;2023-02-16T15:04:54;98305.05;;;7.36;60.88
50011;BME280;35899;50.352;19.390;2023-02-16T15:07:24;98305.59;;;7.23;60.97
50011;BME280;35899;50.352;19.390;2023-02-16T15:09:55;98307.71;;;7.11;61.20
50011;BME280;35899;50.352;19.390;2023-02-16T15:12:37;98309.61;;;6.97;61.74
50011;BME280;35899;50.352;19.390;2023-02-16T15:15:06;98309.45;;;6.86;62.09
50011;BME280;35899;50.352;19.390;2023-02-16T15:17:42;98307.51;;;6.77;62.42
50011;BME280;35899;50.352;19.390;2023-02-16T15:20:31;98305.73;;;6.67;62.70
50011;BME280;35899;50.352;19.390;2023-02-16T15:23:05;98305.96;;;6.58;63.24
50011;BME280;35899;50.352;19.390;2023-02-16T15:25:38;98303.68;;;6.49;63.34
50011;BME280;35899;50.352;19.390;2023-02-16T15:30:45;98307.80;;;6.27;63.94